sensor_id;sensor_type;location;lat;lon;timestamp;pressure;altitude;pressure_sealevel;temperature;humidity
35151;BME280;55720;51.972;4.624;2022-07-31T00:00:18;101513.16;;;18.65;100.00
35151;BME280;55720;51.972;4.624;2022-07-31T00:02:43;101495.28;;;18.66;100.00
35151;BME280;55720;51.972;4.624;2022-07-31T00:05:09;101488.13;;;18.65;100.00
35151;BME280;55720;51.972;4.624;2022-07-31T00:07:35;101474.16;;;18.62;100.00
35151;BME280;55720;51.972;4.624;2022-07-31T00:10:01;101466.63;;;18.62;100.00
35151;BME280;55720;51.972;4.624;2022-07-31T00:12:27;101456.91;;;18.53;100.00
35151;BME280;55720;51.972;4.624;2022-07-31T00:14:53;101454.44;;;18.48;100.00
35151;BME280;55720;51.972;4.624;2022-07-31T00:17:18;101446.75;;;18.41;100.00
35151;BME280;55720;51.972;4.624;2022-07-31T00:19:44;101442.38;;;18.40;100.00
35151;BME280;55720;51.972;4.624;2022-07-31T00:22:09;101439.59;;;18.40;100.00
35151;BME280;55720;51.972;4.624;2022-07-31T00:24:36;101438.91;;;18.47;100.00
35151;BME280;55720;51.972;4.624;2022-07-31T00:27:01;101425.91;;;18.51;100.00
35151;BME280;55720;51.972;4.624;2022-07-31T00:29:27;101413.13;;;18.50;100.00
35151;BME280;55720;51.972;4.624;2022-07-31T00:31:52;101417.09;;;18.49;100.00
35151;BME280;55720;51.972;4.624;2022-07-31T00:34:17;101423.59;;;18.56;100.00
35151;BME280;55720;51.972;4.624;2022-07-31T00:36:43;101429.28;;;18.63;100.00
35151;BME280;55720;51.972;4.624;2022-07-31T00:39:08;101427.75;;;18.66;100.00
35151;BME280;55720;51.972;4.624;2022-07-31T00:41:40;101418.66;;;18.69;100.00
35151;BME280;55720;51.972;4.624;2022-07-31T00:44:07;101413.84;;;18.66;100.00
35151;BME280;55720;51.972;4.624;2022-07-31T00:46:33;101409.19;;;18.74;100.00
35151;BME280;55720;51.972;4.624;2022-07-31T00:48:58;101405.59;;;18.73;100.00
35151;BME280;55720;51.972;4.624;2022-07-31T00:51:24;101403.19;;;18.72;100.00
35151;BME280;55720;51.972;4.624;2022-07-31T00:53:49;101396.88;;;18.75;100.00
35151;BME280;55720;51.972;4.624;2022-07-31T00:56:15;101392.16;;;18.79;100.00
35151;BME280;55720;51.972;4.624;2022-07-31T00:58:40;101382.75;;;18.87;100.00
35151;BME280;55720;51.972;4.624;2022-07-31T01:01:06;101372.19;;;18.99;100.00
35151;BME280;55720;51.972;4.624;2022-07-31T01:03:31;101367.91;;;19.05;100.00
35151;BME280;55720;51.972;4.624;2022-07-31T01:05:56;101355.59;;;19.06;100.00
35151;BME280;55720;51.972;4.624;2022-07-31T01:08:22;101345.22;;;19.03;100.00
35151;BME280;55720;51.972;4.624;2022-07-31T01:13:25;101332.91;;;19.04;100.00
35151;BME280;55720;51.972;4.624;2022-07-31T01:15:54;101323.00;;;19.07;100.00
35151;BME280;55720;51.972;4.624;2022-07-31T01:18:22;101320.97;;;19.04;100.00
35151;BME280;55720;51.972;4.624;2022-07-31T01:20:51;101318.22;;;19.07;100.00
35151;BME280;55720;51.972;4.624;2022-07-31T01:29:07;101309.56;;;19.12;100.00
35151;BME280;55720;51.972;4.624;2022-07-31T01:31:45;101311.97;;;19.17;100.00
35151;BME280;55720;51.972;4.624;2022-07-31T01:34:23;101299.28;;;19.16;100.00
35151;BME280;55720;51.972;4.624;2022-07-31T01:37:20;101296.03;;;19.14;100.00
35151;BME280;55720;51.972;4.624;2022-07-31T01:39:51;101301.63;;;19.14;100.00
35151;BME280;55720;51.972;4.624;2022-07-31T01:42:19;101297.63;;;19.12;100.00
35151;BME280;55720;51.972;4.624;2022-07-31T01:44:50;101303.19;;;19.12;100.00
35151;BME280;55720;51.972;4.624;2022-07-31T01:47:19;101293.69;;;19.16;100.00
35151;BME280;55720;51.972;4.624;2022-07-31T01:49:47;101292.09;;;19.15;100.00
35151;BME280;55720;51.972;4.624;2022-07-31T01:52:14;101294.50;;;19.17;100.00
35151;BME280;55720;51.972;4.624;2022-07-31T01:54:42;101289.31;;;19.15;100.00
35151;BME280;55720;51.972;4.624;2022-07-31T01:57:08;101298.84;;;19.14;100.00
35151;BME280;55720;51.972;4.624;2022-07-31T01:59:35;101293.25;;;19.14;100.00
35151;BME280;55720;51.972;4.624;2022-07-31T02:02:02;101293.25;;;19.14;100.00
35151;BME280;55720;51.972;4.624;2022-07-31T02:04:30;101289.59;;;19.07;100.00
35151;BME280;55720;51.972;4.624;2022-07-31T02:06:57;101281.16;;;19.00;100.00
35151;BME280;55720;51.972;4.624;2022-07-31T02:09:24;101277.91;;;18.94;100.00
35151;BME280;55720;51.972;4.624;2022-07-31T02:11:50;101275.13;;;18.94;100.00
35151;BME280;55720;51.972;4.624;2022-07-31T02:14:18;101274.38;;;18.97;100.00
35151;BME280;55720;51.972;4.624;2022-07-31T02:16:46;101266.03;;;18.97;100.00
35151;BME280;55720;51.972;4.624;2022-07-31T02:19:12;101254.09;;;18.97;100.00
35151;BME280;55720;51.972;4.624;2022-07-31T02:21:39;101248.25;;;19.05;100.00
35151;BME280;55720;51.972;4.624;2022-07-31T02:24:05;101240.69;;;19.06;100.00
35151;BME280;55720;51.972;4.624;2022-07-31T02:26:31;101242.75;;;19.12;100.00
35151;BME280;55720;51.972;4.624;2022-07-31T02:28:58;101242.34;;;19.14;100.00
35151;BME280;55720;51.972;4.624;2022-07-31T02:31:25;101249.56;;;19.18;100.00
35151;BME280;55720;51.972;4.624;2022-07-31T02:33:51;101247.22;;;19.21;100.00
35151;BME280;55720;51.972;4.624;2022-07-31T02:36:18;101247.66;;;19.26;100.00
35151;BME280;55720;51.972;4.624;2022-07-31T02:38:46;101251.22;;;19.23;100.00
35151;BME280;55720;51.972;4.624;2022-07-31T02:41:13;101246.03;;;19.22;100.00
35151;BME280;55720;51.972;4.624;2022-07-31T02:43:41;101249.19;;;19.20;100.00
35151;BME280;55720;51.972;4.624;2022-07-31T02:46:08;101244.38;;;19.13;100.00
35151;BME280;55720;51.972;4.624;2022-07-31T02:48:35;101238.00;;;19.13;100.00
35151;BME280;55720;51.972;4.624;2022-07-31T02:51:01;101244.72;;;19.12;100.00
35151;BME280;55720;51.972;4.624;2022-07-31T02:53:27;101243.16;;;19.14;100.00
35151;BME280;55720;51.972;4.624;2022-07-31T02:55:52;101247.16;;;19.13;100.00
35151;BME280;55720;51.972;4.624;2022-07-31T02:58:19;101245.94;;;19.14;100.00
35151;BME280;55720;51.972;4.624;2022-07-31T03:00:44;101246.41;;;19.20;100.00
35151;BME280;55720;51.972;4.624;2022-07-31T03:03:10;101244.84;;;19.23;100.00
35151;BME280;55720;51.972;4.624;2022-07-31T03:05:35;101236.81;;;19.17;100.00
35151;BME280;55720;51.972;4.624;2022-07-31T03:08:00;101242.34;;;19.14;100.00
35151;BME280;55720;51.972;4.624;2022-07-31T03:10:26;101234.44;;;19.16;100.00
35151;BME280;55720;51.972;4.624;2022-07-31T03:12:53;101230.88;;;19.19;100.00
35151;BME280;55720;51.972;4.624;2022-07-31T03:15:22;101232.06;;;19.18;100.00
35151;BME280;55720;51.972;4.624;2022-07-31T03:17:48;101226.09;;;19.16;100.00
35151;BME280;55720;51.972;4.624;2022-07-31T03:20:14;101236.78;;;19.14;100.00
35151;BME280;55720;51.972;4.624;2022-07-31T03:22:41;101234.81;;;19.14;100.00
35151;BME280;55720;51.972;4.624;2022-07-31T03:25:07;101243.97;;;19.15;100.00
35151;BME280;55720;51.972;4.624;2022-07-31T03:27:34;101243.13;;;19.11;100.00
35151;BME280;55720;51.972;4.624;2022-07-31T03:29:59;101243.97;;;19.15;100.00
35151;BME280;55720;51.972;4.624;2022-07-31T03:32:24;101241.56;;;19.13;100.00
35151;BME280;55720;51.972;4.624;2022-07-31T03:34:50;101246.75;;;19.15;100.00
35151;BME280;55720;51.972;4.624;2022-07-31T03:37:15;101247.16;;;19.13;100.00
35151;BME280;55720;51.972;4.624;2022-07-31T03:39:40;101244.38;;;19.13;100.00
35151;BME280;55720;51.972;4.624;2022-07-31T03:42:09;101244.81;;;19.19;100.00
35151;BME280;55720;51.972;4.624;2022-07-31T03:44:36;101248.41;;;19.20;100.00
35151;BME280;55720;51.972;4.624;2022-07-31T03:47:03;101253.16;;;19.19;100.00
35151;BME280;55720;51.972;4.624;2022-07-31T03:49:30;101249.97;;;19.17;100.00
35151;BME280;55720;51.972;4.624;2022-07-31T03:51:56;101247.88;;;19.10;100.00
35151;BME280;55720;51.972;4.624;2022-07-31T03:54:22;101241.16;;;19.11;100.00
35151;BME280;55720;51.972;4.624;2022-07-31T03:56:49;101239.13;;;19.08;100.00
35151;BME280;55720;51.972;4.624;2022-07-31T03:59:16;101243.84;;;19.04;100.00
35151;BME280;55720;51.972;4.624;2022-07-31T04:01:45;101233.53;;;19.05;100.00
35151;BME280;55720;51.972;4.624;2022-07-31T04:04:11;101234.66;;;19.00;100.00
35151;BME280;55720;51.972;4.624;2022-07-31T04:06:38;101230.69;;;19.01;100.00
35151;BME280;55720;51.972;4.624;2022-07-31T04:09:03;101224.28;;;18.97;100.00
35151;BME280;55720;51.972;4.624;2022-07-31T04:11:28;101219.94;;;19.00;100.00
35151;BME280;55720;51.972;4.624;2022-07-31T04:13:54;101225.50;;;19.00;100.00
35151;BME280;55720;51.972;4.624;2022-07-31T04:16:19;101228.72;;;19.02;100.00
35151;BME280;55720;51.972;4.624;2022-07-31T04:18:45;101208.78;;;19.00;100.00
35151;BME280;55720;51.972;4.624;2022-07-31T04:21:10;101217.59;;;19.02;100.00
35151;BME280;55720;51.972;4.624;2022-07-31T04:23:36;101210.81;;;19.03;100.00
35151;BME280;55720;51.972;4.624;2022-07-31T04:26:01;101210.81;;;19.03;100.00
35151;BME280;55720;51.972;4.624;2022-07-31T04:28:27;101209.59;;;19.00;100.00
35151;BME280;55720;51.972;4.624;2022-07-31T04:30:52;101198.09;;;19.02;100.00
35151;BME280;55720;51.972;4.624;2022-07-31T04:33:18;101202.06;;;19.01;100.00
35151;BME280;55720;51.972;4.624;2022-07-31T04:35:43;101184.97;;;18.99;100.00
35151;BME280;55720;51.972;4.624;2022-07-31T04:38:08;101190.53;;;18.99;100.00
35151;BME280;55720;51.972;4.624;2022-07-31T04:40:36;101184.53;;;18.97;100.00
35151;BME280;55720;51.972;4.624;2022-07-31T04:43:01;101186.97;;;19.02;100.00
35151;BME280;55720;51.972;4.624;2022-07-31T04:45:27;101174.63;;;19.03;100.00
35151;BME280;55720;51.972;4.624;2022-07-31T04:47:52;101180.28;;;19.10;100.00
35151;BME280;55720;51.972;4.624;2022-07-31T04:50:17;101180.69;;;19.08;100.00
35151;BME280;55720;51.972;4.624;2022-07-31T04:52:43;101178.72;;;19.12;100.00
35151;BME280;55720;51.972;4.624;2022-07-31T04:55:08;101175.59;;;19.17;100.00
35151;BME280;55720;51.972;4.624;2022-07-31T04:57:33;101170.44;;;19.20;100.00
35151;BME280;55720;51.972;4.624;2022-07-31T04:59:59;101162.09;;;19.20;100.00
35151;BME280;55720;51.972;4.624;2022-07-31T05:02:24;101162.97;;;19.27;100.00
35151;BME280;55720;51.972;4.624;2022-07-31T05:04:50;101161.44;;;19.33;100.00
35151;BME280;55720;51.972;4.624;2022-07-31T05:07:15;101167.81;;;19.34;100.00
35151;BME280;55720;51.972;4.624;2022-07-31T05:09:40;101170.94;;;19.32;100.00
35151;BME280;55720;51.972;4.624;2022-07-31T05:12:06;101159.47;;;19.37;100.00
35151;BME280;55720;51.972;4.624;2022-07-31T05:14:32;101155.84;;;19.33;100.00
35151;BME280;55720;51.972;4.624;2022-07-31T05:16:57;101155.88;;;19.37;100.00
35151;BME280;55720;51.972;4.624;2022-07-31T05:19:23;101153.63;;;19.46;100.00
35151;BME280;55720;51.972;4.624;2022-07-31T05:21:54;101148.50;;;19.51;100.00
35151;BME280;55720;51.972;4.624;2022-07-31T05:24:20;101150.97;;;19.60;100.00
35151;BME280;55720;51.972;4.624;2022-07-31T05:26:45;101148.22;;;19.67;100.00
35151;BME280;55720;51.972;4.624;2022-07-31T05:29:11;101147.44;;;19.70;100.00
35151;BME280;55720;51.972;4.624;2022-07-31T05:31:36;101150.56;;;19.65;100.00
35151;BME280;55720;51.972;4.624;2022-07-31T05:34:01;101145.81;;;19.65;100.00
35151;BME280;55720;51.972;4.624;2022-07-31T05:36:27;101146.59;;;19.62;100.00
35151;BME280;55720;51.972;4.624;2022-07-31T05:38:52;101144.97;;;19.58;100.00
35151;BME280;55720;51.972;4.624;2022-07-31T05:41:18;101143.84;;;19.70;100.00
35151;BME280;55720;51.972;4.624;2022-07-31T05:43:44;101147.91;;;19.79;100.00
35151;BME280;55720;51.972;4.624;2022-07-31T05:46:09;101149.44;;;19.73;100.00
35151;BME280;55720;51.972;4.624;2022-07-31T05:48:38;101157.88;;;19.80;100.00
35151;BME280;55720;51.972;4.624;2022-07-31T05:51:10;101150.34;;;19.84;100.00
35151;BME280;55720;51.972;4.624;2022-07-31T05:53:37;101145.97;;;19.90;100.00
35151;BME280;55720;51.972;4.624;2022-07-31T05:56:03;101139.22;;;19.88;100.00
35151;BME280;55720;51.972;4.624;2022-07-31T05:58:30;101143.66;;;19.96;100.00
35151;BME280;55720;51.972;4.624;2022-07-31T06:00:55;101140.09;;;20.02;100.00
35151;BME280;55720;51.972;4.624;2022-07-31T06:03:22;101138.50;;;20.01;100.00
35151;BME280;55720;51.972;4.624;2022-07-31T06:05:48;101144.09;;;20.05;100.00
35151;BME280;55720;51.972;4.624;2022-07-31T06:08:15;101144.50;;;20.03;100.00
35151;BME280;55720;51.972;4.624;2022-07-31T06:10:40;101154.88;;;20.10;100.00
35151;BME280;55720;51.972;4.624;2022-07-31T06:13:06;101148.91;;;20.11;100.00
35151;BME280;55720;51.972;4.624;2022-07-31T06:15:32;101147.34;;;20.14;100.00
35151;BME280;55720;51.972;4.624;2022-07-31T06:17:57;101145.84;;;20.31;100.00
35151;BME280;55720;51.972;4.624;2022-07-31T06:20:23;101160.25;;;20.36;100.00
35151;BME280;55720;51.972;4.624;2022-07-31T06:22:49;101155.81;;;20.32;100.00
35151;BME280;55720;51.972;4.624;2022-07-31T06:25:14;101157.50;;;20.47;100.00
35151;BME280;55720;51.972;4.624;2022-07-31T06:27:40;101155.50;;;20.47;100.00
35151;BME280;55720;51.972;4.624;2022-07-31T06:30:06;101159.88;;;20.52;100.00
35151;BME280;55720;51.972;4.624;2022-07-31T06:32:33;101155.09;;;20.45;100.00
35151;BME280;55720;51.972;4.624;2022-07-31T06:34:58;101152.31;;;20.49;100.00
35151;BME280;55720;51.972;4.624;2022-07-31T06:37:24;101155.84;;;20.39;100.00
35151;BME280;55720;51.972;4.624;2022-07-31T06:39:50;101154.31;;;20.52;100.00
35151;BME280;55720;51.972;4.624;2022-07-31T06:42:23;101152.31;;;20.52;100.00
35151;BME280;55720;51.972;4.624;2022-07-31T06:44:49;101159.06;;;20.48;100.00
35151;BME280;55720;51.972;4.624;2022-07-31T06:47:15;101159.50;;;20.53;100.00
35151;BME280;55720;51.972;4.624;2022-07-31T06:49:41;101161.53;;;20.60;100.00
35151;BME280;55720;51.972;4.624;2022-07-31T06:52:06;101156.75;;;20.64;100.00
35151;BME280;55720;51.972;4.624;2022-07-31T06:54:32;101152.34;;;20.59;100.00
35151;BME280;55720;51.972;4.624;2022-07-31T06:56:57;101152.03;;;20.82;100.00
35151;BME280;55720;51.972;4.624;2022-07-31T06:59:23;101157.63;;;20.89;100.00
35151;BME280;55720;51.972;4.624;2022-07-31T07:01:48;101156.06;;;21.02;100.00
35151;BME280;55720;51.972;4.624;2022-07-31T07:04:13;101161.25;;;20.93;100.00
35151;BME280;55720;51.972;4.624;2022-07-31T07:06:39;101158.44;;;20.90;100.00
35151;BME280;55720;51.972;4.624;2022-07-31T07:09:04;101164.00;;;20.86;100.00
35151;BME280;55720;51.972;4.624;2022-07-31T07:11:29;101162.38;;;20.75;100.00
35151;BME280;55720;51.972;4.624;2022-07-31T07:13:55;101158.47;;;21.07;100.00
35151;BME280;55720;51.972;4.624;2022-07-31T07:16:20;101159.66;;;21.03;100.00
35151;BME280;55720;51.972;4.624;2022-07-31T07:18:46;101170.44;;;20.97;100.00
35151;BME280;55720;51.972;4.624;2022-07-31T07:21:11;101170.84;;;21.06;100.00
35151;BME280;55720;51.972;4.624;2022-07-31T07:23:37;101162.03;;;20.94;100.00
35151;BME280;55720;51.972;4.624;2022-07-31T07:26:03;101156.91;;;21.14;100.00
35151;BME280;55720;51.972;4.624;2022-07-31T07:28:28;101158.13;;;21.20;100.00
35151;BME280;55720;51.972;4.624;2022-07-31T07:30:54;101162.09;;;21.12;100.00
35151;BME280;55720;51.972;4.624;2022-07-31T07:33:19;101156.53;;;21.22;100.00
35151;BME280;55720;51.972;4.624;2022-07-31T07:35:44;101150.91;;;21.08;100.00
35151;BME280;55720;51.972;4.624;2022-07-31T07:38:10;101153.69;;;21.04;100.00
35151;BME280;55720;51.972;4.624;2022-07-31T07:40:35;101148.47;;;20.99;100.00
35151;BME280;55720;51.972;4.624;2022-07-31T07:43:00;101148.84;;;20.84;100.00
35151;BME280;55720;51.972;4.624;2022-07-31T07:45:26;101148.84;;;20.84;100.00
35151;BME280;55720;51.972;4.624;2022-07-31T07:47:51;101143.25;;;20.84;100.00
35151;BME280;55720;51.972;4.624;2022-07-31T07:50:17;101141.25;;;20.74;100.00
35151;BME280;55720;51.972;4.624;2022-07-31T07:52:42;101133.66;;;20.74;100.00
35151;BME280;55720;51.972;4.624;2022-07-31T07:55:08;101140.03;;;20.64;100.00
35151;BME280;55720;51.972;4.624;2022-07-31T07:57:35;101138.84;;;20.65;100.00
35151;BME280;55720;51.972;4.624;2022-07-31T08:00:02;101134.03;;;20.62;100.00
35151;BME280;55720;51.972;4.624;2022-07-31T08:02:30;101145.56;;;20.57;100.00
35151;BME280;55720;51.972;4.624;2022-07-31T08:04:55;101150.75;;;20.58;100.00
35151;BME280;55720;51.972;4.624;2022-07-31T08:07:31;101149.25;;;20.79;100.00
35151;BME280;55720;51.972;4.624;2022-07-31T08:09:58;101153.22;;;20.81;100.00
35151;BME280;55720;51.972;4.624;2022-07-31T08:12:24;101150.06;;;20.83;100.00
35151;BME280;55720;51.972;4.624;2022-07-31T08:14:49;101135.69;;;20.88;100.00
35151;BME280;55720;51.972;4.624;2022-07-31T08:17:15;101137.75;;;21.01;100.00
35151;BME280;55720;51.972;4.624;2022-07-31T08:19:40;101132.94;;;21.05;100.00
35151;BME280;55720;51.972;4.624;2022-07-31T08:22:06;101126.63;;;21.16;100.00
35151;BME280;55720;51.972;4.624;2022-07-31T08:24:32;101123.41;;;21.35;100.00
35151;BME280;55720;51.972;4.624;2022-07-31T08:26:57;101119.84;;;21.45;100.00
35151;BME280;55720;51.972;4.624;2022-07-31T08:29:41;101114.63;;;21.72;100.00
35151;BME280;55720;51.972;4.624;2022-07-31T08:32:06;101116.63;;;21.60;100.00
35151;BME280;55720;51.972;4.624;2022-07-31T08:34:32;101120.19;;;22.00;100.00
35151;BME280;55720;51.972;4.624;2022-07-31T08:36:58;101114.47;;;22.39;100.00
35151;BME280;55720;51.972;4.624;2022-07-31T08:39:23;101123.72;;;22.18;100.00
35151;BME280;55720;51.972;4.624;2022-07-31T08:41:48;101134.47;;;22.30;100.00
35151;BME280;55720;51.972;4.624;2022-07-31T08:44:14;101134.91;;;22.15;100.00
35151;BME280;55720;51.972;4.624;2022-07-31T08:46:39;101146.13;;;22.07;100.00
35151;BME280;55720;51.972;4.624;2022-07-31T08:49:06;101155.72;;;21.96;100.00
35151;BME280;55720;51.972;4.624;2022-07-31T08:51:35;101151.34;;;21.88;100.00
35151;BME280;55720;51.972;4.624;2022-07-31T08:54:05;101150.56;;;21.84;100.00
35151;BME280;55720;51.972;4.624;2022-07-31T08:56:35;101154.53;;;21.76;100.00
35151;BME280;55720;51.972;4.624;2022-07-31T08:59:01;101164.13;;;21.75;100.00
35151;BME280;55720;51.972;4.624;2022-07-31T09:01:27;101164.94;;;21.65;100.00
35151;BME280;55720;51.972;4.624;2022-07-31T09:03:53;101160.94;;;21.87;100.00
35151;BME280;55720;51.972;4.624;2022-07-31T09:06:19;101159.75;;;21.91;100.00
35151;BME280;55720;51.972;4.624;2022-07-31T09:08:45;101160.94;;;21.90;100.00
35151;BME280;55720;51.972;4.624;2022-07-31T09:11:13;101147.34;;;22.06;100.00
35151;BME280;55720;51.972;4.624;2022-07-31T09:13:40;101151.31;;;22.20;100.00
35151;BME280;55720;51.972;4.624;2022-07-31T09:16:16;101162.06;;;22.25;100.00
35151;BME280;55720;51.972;4.624;2022-07-31T09:18:42;101163.22;;;22.45;100.00
35151;BME280;55720;51.972;4.624;2022-07-31T09:21:07;101167.88;;;22.76;100.00
35151;BME280;55720;51.972;4.624;2022-07-31T09:23:43;101164.03;;;22.42;100.00
35151;BME280;55720;51.972;4.624;2022-07-31T09:26:09;101171.94;;;22.57;100.00
35151;BME280;55720;51.972;4.624;2022-07-31T09:28:39;101176.31;;;22.69;100.00
35151;BME280;55720;51.972;4.624;2022-07-31T09:31:07;101187.19;;;22.46;100.00
35151;BME280;55720;51.972;4.624;2022-07-31T09:33:32;101186.00;;;22.36;100.00
35151;BME280;55720;51.972;4.624;2022-07-31T09:35:58;101170.88;;;22.23;100.00
35151;BME280;55720;51.972;4.624;2022-07-31T09:38:34;101181.28;;;21.87;100.00
35151;BME280;55720;51.972;4.624;2022-07-31T09:41:20;101173.69;;;21.56;100.00
35151;BME280;55720;51.972;4.624;2022-07-31T09:44:01;101158.06;;;21.09;100.00
35151;BME280;55720;51.972;4.624;2022-07-31T09:46:38;101145.28;;;20.87;100.00
35151;BME280;55720;51.972;4.624;2022-07-31T09:49:04;101140.44;;;20.80;100.00
35151;BME280;55720;51.972;4.624;2022-07-31T09:51:37;101138.06;;;20.72;100.00
35151;BME280;55720;51.972;4.624;2022-07-31T09:54:03;101145.97;;;20.59;100.00
35151;BME280;55720;51.972;4.624;2022-07-31T09:56:29;101154.34;;;20.59;100.00
35151;BME280;55720;51.972;4.624;2022-07-31T09:58:55;101170.66;;;20.53;100.00
35151;BME280;55720;51.972;4.624;2022-07-31T10:01:21;101181.41;;;20.51;100.00
35151;BME280;55720;51.972;4.624;2022-07-31T10:03:47;101180.53;;;20.37;100.00
35151;BME280;55720;51.972;4.624;2022-07-31T10:06:15;101215.63;;;20.41;100.00
35151;BME280;55720;51.972;4.624;2022-07-31T10:08:43;101243.19;;;20.50;100.00
35151;BME280;55720;51.972;4.624;2022-07-31T10:11:09;101265.00;;;20.37;100.00
35151;BME280;55720;51.972;4.624;2022-07-31T10:13:37;101297.66;;;20.37;100.00
35151;BME280;55720;51.972;4.624;2022-07-31T10:16:04;101325.22;;;20.42;100.00
35151;BME280;55720;51.972;4.624;2022-07-31T10:18:34;101343.66;;;20.57;100.00
35151;BME280;55720;51.972;4.624;2022-07-31T10:21:03;101338.47;;;20.59;100.00
35151;BME280;55720;51.972;4.624;2022-07-31T10:23:29;101337.66;;;20.55;100.00
35151;BME280;55720;51.972;4.624;2022-07-31T10:25:57;101336.13;;;20.61;100.00
35151;BME280;55720;51.972;4.624;2022-07-31T10:28:23;101316.59;;;20.61;100.00
35151;BME280;55720;51.972;4.624;2022-07-31T10:30:49;101313.84;;;20.68;100.00
35151;BME280;55720;51.972;4.624;2022-07-31T10:33:15;101312.16;;;20.56;100.00
35151;BME280;55720;51.972;4.624;2022-07-31T10:35:58;101314.97;;;20.60;100.00
35151;BME280;55720;51.972;4.624;2022-07-31T10:38:28;101302.69;;;20.68;100.00
35151;BME280;55720;51.972;4.624;2022-07-31T10:41:04;101305.47;;;20.68;100.00
35151;BME280;55720;51.972;4.624;2022-07-31T10:43:49;101295.50;;;20.71;100.00
35151;BME280;55720;51.972;4.624;2022-07-31T10:46:25;101308.28;;;20.72;100.00
35151;BME280;55720;51.972;4.624;2022-07-31T10:48:52;101310.25;;;20.68;100.00
35151;BME280;55720;51.972;4.624;2022-07-31T10:51:17;101315.34;;;20.58;100.00
35151;BME280;55720;51.972;4.624;2022-07-31T10:53:57;101319.75;;;20.59;100.00
35151;BME280;55720;51.972;4.624;2022-07-31T10:56:23;101316.56;;;20.57;100.00
35151;BME280;55720;51.972;4.624;2022-07-31T10:58:50;101331.06;;;20.84;100.00
35151;BME280;55720;51.972;4.624;2022-07-31T11:01:16;101301.84;;;21.47;100.00
35151;BME280;55720;51.972;4.624;2022-07-31T11:03:43;101250.03;;;21.92;100.00
35151;BME280;55720;51.972;4.624;2022-07-31T11:06:13;101187.72;;;21.98;100.00
35151;BME280;55720;51.972;4.624;2022-07-31T11:08:45;101153.72;;;22.00;100.00
35151;BME280;55720;51.972;4.624;2022-07-31T11:11:12;101128.97;;;21.88;100.00
35151;BME280;55720;51.972;4.624;2022-07-31T11:14:04;101106.97;;;22.07;100.00
35151;BME280;55720;51.972;4.624;2022-07-31T11:16:29;101086.19;;;22.16;100.00
35151;BME280;55720;51.972;4.624;2022-07-31T11:18:59;101085.00;;;22.17;100.00
35151;BME280;55720;51.972;4.624;2022-07-31T11:21:43;101085.06;;;21.95;100.00
35151;BME280;55720;51.972;4.624;2022-07-31T11:24:19;101092.63;;;22.05;100.00
35151;BME280;55720;51.972;4.624;2022-07-31T11:26:50;101090.59;;;22.17;100.00
35151;BME280;55720;51.972;4.624;2022-07-31T11:29:31;101091.66;;;22.44;100.00
35151;BME280;55720;51.972;4.624;2022-07-31T11:34:50;101105.22;;;23.66;100.00
35151;BME280;55720;51.972;4.624;2022-07-31T11:37:23;101104.75;;;23.27;100.00
35151;BME280;55720;51.972;4.624;2022-07-31T11:39:50;101115.38;;;22.98;100.00
35151;BME280;55720;51.972;4.624;2022-07-31T11:42:17;101101.00;;;22.92;100.00
35151;BME280;55720;51.972;4.624;2022-07-31T11:44:43;101114.03;;;23.17;100.00
35151;BME280;55720;51.972;4.624;2022-07-31T11:47:09;101111.63;;;23.19;100.00
35151;BME280;55720;51.972;4.624;2022-07-31T11:49:34;101104.94;;;23.02;100.00
35151;BME280;55720;51.972;4.624;2022-07-31T11:52:03;101115.91;;;22.79;100.00
35151;BME280;55720;51.972;4.624;2022-07-31T11:54:29;101121.59;;;22.50;100.00
35151;BME280;55720;51.972;4.624;2022-07-31T11:56:55;101115.31;;;22.25;100.00
35151;BME280;55720;51.972;4.624;2022-07-31T11:59:47;101115.00;;;22.05;100.00
35151;BME280;55720;51.972;4.624;2022-07-31T12:02:13;101118.97;;;22.08;100.00
35151;BME280;55720;51.972;4.624;2022-07-31T12:04:39;101117.78;;;22.02;100.00
35151;BME280;55720;51.972;4.624;2022-07-31T12:07:06;101122.19;;;22.06;100.00
35151;BME280;55720;51.972;4.624;2022-07-31T12:09:32;101103.84;;;21.91;100.00
35151;BME280;55720;51.972;4.624;2022-07-31T12:11:59;101105.81;;;21.94;100.00
35151;BME280;55720;51.972;4.624;2022-07-31T12:17:00;101112.81;;;22.52;100.00
35151;BME280;55720;51.972;4.624;2022-07-31T12:19:31;101107.06;;;22.84;100.00
35151;BME280;55720;51.972;4.624;2022-07-31T12:21:57;101094.81;;;23.15;100.00
35151;BME280;55720;51.972;4.624;2022-07-31T12:24:23;101095.78;;;23.90;100.00
35151;BME280;55720;51.972;4.624;2022-07-31T12:26:56;101096.31;;;24.46;100.00
35151;BME280;55720;51.972;4.624;2022-07-31T12:29:35;101123.94;;;24.17;100.00
35151;BME280;55720;51.972;4.624;2022-07-31T12:32:02;101122.78;;;24.15;100.00
35151;BME280;55720;51.972;4.624;2022-07-31T12:34:35;101137.53;;;23.81;100.00
35151;BME280;55720;51.972;4.624;2022-07-31T12:37:03;101147.03;;;23.50;100.00
35151;BME280;55720;51.972;4.624;2022-07-31T12:39:30;101137.97;;;23.28;100.00
35151;BME280;55720;51.972;4.624;2022-07-31T12:41:56;101121.91;;;23.80;100.00
35151;BME280;55720;51.972;4.624;2022-07-31T12:44:21;101106.88;;;24.35;100.00
35151;BME280;55720;51.972;4.624;2022-07-31T12:46:47;101122.75;;;24.79;100.00
35151;BME280;55720;51.972;4.624;2022-07-31T12:49:12;101131.88;;;25.17;100.00
35151;BME280;55720;51.972;4.624;2022-07-31T12:51:38;101150.50;;;25.30;100.00
35151;BME280;55720;51.972;4.624;2022-07-31T12:54:05;101159.63;;;25.11;100.00